Time;durP1;ratioP1;P1;durP2;ratioP2;P2;SDS_P1;SDS_P2;PMS_P1;PMS_P2;Temp;Humidity;BMP_temperature;BMP_pressure;BME280_temperature;BME280_humidity;BME280_pressure;Samples;Min_cycle;Max_cycle;Signal;HPM_P1;HPM_P2
2022/05/30 00:01:14;;;;;;;5.37;2.20;;;;;;;22.95;64.94;98095.03;6102294;23;20241;-92
2022/05/30 00:03:40;;;;;;;10.53;2.60;;;;;;;22.79;66.16;98090.69;6126265;23;20156;-93
2022/05/30 00:06:08;;;;;;;8.03;1.90;;;;;;;22.43;65.93;98089.69;6101786;23;20148;-92
2022/05/30 00:08:34;;;;;;;8.50;2.63;;;;;;;22.26;67.37;98082.81;6127218;23;20168;-92
2022/05/30 00:11:04;;;;;;;11.40;2.47;;;;;;;22.25;68.71;98067.81;6126499;23;20675;-93
2022/05/30 00:13:30;;;;;;;9.37;3.17;;;;;;;22.13;69.46;98070.06;6101596;23;20160;-93
2022/05/30 00:15:56;;;;;;;6.23;2.67;;;;;;;22.28;70.00;98064.75;6127312;23;20203;-93
2022/05/30 00:18:21;;;;;;;10.80;2.63;;;;;;;22.44;69.36;98086.81;6101884;23;20163;-92
2022/05/30 00:20:47;;;;;;;6.07;2.67;;;;;;;22.63;68.96;98102.38;6127234;23;20147;-93
2022/05/30 00:23:13;;;;;;;7.97;2.87;;;;;;;22.68;69.00;98125.03;6126231;23;20155;-92
2022/05/30 00:25:42;;;;;;;7.87;3.40;;;;;;;22.55;69.38;98115.78;6127190;23;20172;-92
2022/05/30 00:28:08;;;;;;;6.13;2.13;;;;;;;22.40;69.87;98122.91;6126995;23;20171;-91
2022/05/30 00:30:35;;;;;;;5.87;2.00;;;;;;;22.27;69.96;98117.34;6126969;23;20155;-92
2022/05/30 00:33:00;;;;;;;7.63;2.47;;;;;;;22.40;70.14;98108.72;6127253;23;20162;-91
2022/05/30 00:35:26;;;;;;;5.60;2.80;;;;;;;22.45;71.03;98109.84;6127336;23;20179;-92
2022/05/30 00:37:51;;;;;;;8.27;3.10;;;;;;;22.42;71.20;98088.00;6101617;23;20176;-92
2022/05/30 00:40:17;;;;;;;11.17;3.13;;;;;;;22.57;70.84;98087.03;6102681;23;20160;-93
2022/05/30 00:42:42;;;;;;;6.47;2.57;;;;;;;22.72;70.71;98088.94;6127007;23;20159;-91
2022/05/30 00:45:09;;;;;;;7.63;2.67;;;;;;;22.71;70.98;98092.63;6127383;23;20154;-92
2022/05/30 00:47:35;;;;;;;6.83;3.57;;;;;;;22.60;71.31;98099.19;6101812;23;20160;-92
2022/05/30 00:50:01;;;;;;;8.23;3.20;;;;;;;22.54;71.43;98110.59;6126194;23;20531;-92
2022/05/30 00:52:36;;;;;;;7.90;3.77;;;;;;;22.43;71.37;98111.03;6126909;23;20175;-93
2022/05/30 00:55:07;;;;;;;6.67;2.60;;;;;;;22.42;70.77;98112.88;6101689;23;20159;-92
2022/05/30 00:57:34;;;;;;;6.27;3.20;;;;;;;22.51;70.09;98109.13;6125816;23;20258;-92
2022/05/30 01:00:07;;;;;;;4.30;2.10;;;;;;;22.50;69.71;98101.28;6127010;23;20174;-91
2022/05/30 01:02:35;;;;;;;5.93;2.70;;;;;;;22.50;68.82;98101.28;6101394;23;20156;-92
2022/05/30 01:07:46;;;;;;;5.73;2.73;;;;;;;22.56;68.59;98093.38;6127073;23;20670;-92
2022/05/30 01:10:16;;;;;;;6.80;2.50;;;;;;;22.64;68.44;98088.00;6126941;23;20207;-92
2022/05/30 01:12:52;;;;;;;6.47;2.60;;;;;;;22.66;67.79;98079.81;6101353;23;20167;-92
2022/05/30 01:15:23;;;;;;;5.20;2.83;;;;;;;22.60;67.34;98081.34;6127202;23;20198;-92
2022/05/30 01:18:23;;;;;;;4.63;2.20;;;;;;;22.47;67.87;98085.63;6127086;23;20489;-92
2022/05/30 01:20:57;;;;;;;11.97;2.57;;;;;;;22.40;67.78;98085.53;6120243;23;20156;-93
2022/05/30 01:24:00;;;;;;;5.77;2.07;;;;;;;22.30;67.72;98084.94;6127262;23;20158;-92
2022/05/30 01:26:38;;;;;;;8.03;3.00;;;;;;;22.23;68.26;98081.31;6125909;23;20586;-92
2022/05/30 01:29:09;;;;;;;4.97;2.57;;;;;;;22.20;68.28;98087.03;6126950;23;20131;-92
2022/05/30 01:31:35;;;;;;;6.27;1.87;;;;;;;22.18;67.79;98090.88;6101293;23;20186;-92
2022/05/30 01:34:01;;;;;;;10.00;2.43;;;;;;;22.15;67.61;98093.91;6125622;23;20567;-93
2022/05/30 01:36:29;;;;;;;8.07;2.43;;;;;;;22.11;67.50;98096.13;6126865;23;20203;-92
2022/05/30 01:38:55;;;;;;;11.37;3.27;;;;;;;22.14;67.26;98095.75;6127476;23;20579;-92
2022/05/30 01:41:21;;;;;;;5.60;1.87;;;;;;;22.11;66.77;98095.28;6101330;23;20155;-91
2022/05/30 01:43:46;;;;;;;7.20;2.60;;;;;;;22.14;66.96;98101.09;6127082;23;20180;-92
2022/05/30 01:46:17;;;;;;;6.03;2.50;;;;;;;22.18;66.78;98106.88;6127000;23;20266;-93
2022/05/30 01:48:43;;;;;;;4.53;1.80;;;;;;;22.18;67.14;98105.06;6126838;23;20138;-92
2022/05/30 01:51:09;;;;;;;7.60;2.10;;;;;;;22.12;68.08;98104.97;6127194;23;20166;-92
2022/05/30 01:53:34;;;;;;;5.30;2.63;;;;;;;22.07;68.30;98100.13;6127136;23;20492;-92
2022/05/30 01:56:00;;;;;;;4.87;1.87;;;;;;;22.18;67.87;98106.88;6101662;23;20246;-93
2022/05/30 01:58:25;;;;;;;9.90;2.03;;;;;;;22.25;67.01;98106.00;6101194;23;20551;-93
2022/05/30 02:00:51;;;;;;;7.03;2.13;;;;;;;22.18;67.09;98106.88;6127305;23;20152;-92
2022/05/30 02:03:16;;;;;;;4.03;1.63;;;;;;;22.21;66.50;98118.06;6126669;23;20152;-92
2022/05/30 02:05:42;;;;;;;12.33;2.67;;;;;;;22.15;65.68;98123.25;6126643;23;20155;-93
2022/05/30 02:08:08;;;;;;;4.13;1.77;;;;;;;22.09;66.60;98124.78;6126551;23;20238;-92
2022/05/30 02:10:35;;;;;;;4.73;1.90;;;;;;;22.12;66.93;98128.97;6126641;23;20148;-92
2022/05/30 02:13:01;;;;;;;6.70;2.57;;;;;;;22.09;66.29;98124.00;6101344;23;20206;-93
2022/05/30 02:15:26;;;;;;;6.47;2.23;;;;;;;22.03;65.89;98136.19;6126496;23;20148;-92
2022/05/30 02:17:52;;;;;;;4.07;2.10;;;;;;;21.89;66.63;98134.28;6101093;23;20160;-93
2022/05/30 02:20:18;;;;;;;7.13;2.20;;;;;;;21.83;66.96;98132.28;6126672;23;20214;-92
2022/05/30 02:22:44;;;;;;;6.03;2.33;;;;;;;21.75;66.65;98137.69;6126967;23;20155;-93
2022/05/30 02:25:12;;;;;;;5.00;1.47;;;;;;;21.69;67.03;98133.03;6101207;23;20156;-92
2022/05/30 02:27:38;;;;;;;3.03;1.80;;;;;;;21.63;66.91;98141.72;6127330;23;20168;-93
2022/05/30 02:30:04;;;;;;;7.53;2.00;;;;;;;21.67;66.30;98145.72;6126614;23;20158;-92
2022/05/30 02:32:30;;;;;;;6.47;2.20;;;;;;;21.67;66.13;98138.53;6126779;23;20458;-92
2022/05/30 02:37:39;;;;;;;10.63;2.20;;;;;;;21.39;67.09;98140.81;6127710;23;20155;-93
2022/05/30 02:40:05;;;;;;;5.57;2.10;;;;;;;21.50;66.89;98149.44;6103360;23;20235;-93
2022/05/30 02:42:31;;;;;;;7.53;2.20;;;;;;;21.53;66.80;98154.44;6128302;23;20572;-93
2022/05/30 02:44:56;;;;;;;4.30;1.83;;;;;;;21.59;66.48;98154.59;6102837;23;20226;-93
2022/05/30 02:47:22;;;;;;;5.43;2.07;;;;;;;21.64;66.45;98156.72;6103273;23;20152;-93
2022/05/30 02:49:47;;;;;;;6.70;2.53;;;;;;;21.70;66.35;98161.34;6102868;23;20159;-92
2022/05/30 02:52:13;;;;;;;3.10;1.67;;;;;;;21.78;66.29;98169.31;6103173;23;20210;-93
2022/05/30 02:54:39;;;;;;;6.43;2.20;;;;;;;21.80;65.87;98175.34;6127246;23;20548;-93
2022/05/30 02:57:05;;;;;;;5.17;1.90;;;;;;;21.81;65.88;98182.31;6127308;23;20188;-93
2022/05/30 02:59:30;;;;;;;5.40;2.93;;;;;;;21.76;66.32;98187.34;6128431;23;20152;-93
2022/05/30 03:01:56;;;;;;;3.33;2.10;;;;;;;21.64;66.92;98178.06;6128434;23;20630;-92
2022/05/30 03:04:21;;;;;;;6.03;2.30;;;;;;;21.54;67.34;98188.13;6128099;23;20543;-92
2022/05/30 03:06:48;;;;;;;5.83;1.90;;;;;;;21.53;67.04;98191.78;6102790;23;20587;-93
2022/05/30 03:09:15;;;;;;;6.80;1.97;;;;;;;21.54;66.71;98199.59;6128212;23;20167;-92
2022/05/30 03:11:41;;;;;;;4.53;2.00;;;;;;;21.59;66.56;98201.75;6128341;23;20156;-93
2022/05/30 03:14:06;;;;;;;8.10;2.13;;;;;;;21.61;66.32;98210.41;6128058;23;20152;-92
2022/05/30 03:16:32;;;;;;;11.73;2.20;;;;;;;21.64;66.02;98210.06;6128167;23;20231;-92
2022/05/30 03:18:57;;;;;;;4.97;2.00;;;;;;;21.61;66.12;98205.06;6127888;23;20231;-92
2022/05/30 03:21:23;;;;;;;7.43;2.80;;;;;;;21.62;65.75;98206.75;6128237;23;20227;-93
2022/05/30 03:23:49;;;;;;;6.23;1.87;;;;;;;21.62;65.89;98206.75;6128138;23;20475;-92
2022/05/30 03:26:16;;;;;;;6.27;2.97;;;;;;;21.55;65.92;98211.94;6102454;23;20211;-94
2022/05/30 03:28:42;;;;;;;7.23;3.27;;;;;;;21.49;66.58;98206.47;6127769;23;20174;-93
2022/05/30 03:31:08;;;;;;;8.27;3.90;;;;;;;21.47;67.50;98219.13;6128216;23;20210;-93
2022/05/30 03:33:35;;;;;;;7.10;4.43;;;;;;;21.41;68.58;98226.78;6102280;23;20159;-92
2022/05/30 03:36:01;;;;;;;6.90;4.00;;;;;;;21.46;68.88;98228.13;6102259;23;20571;-93
2022/05/30 03:38:27;;;;;;;4.73;2.93;;;;;;;21.48;69.28;98234.97;6102416;23;20235;-92
2022/05/30 03:40:52;;;;;;;8.27;3.43;;;;;;;21.51;69.38;98236.44;6127785;23;20226;-92
2022/05/30 03:43:18;;;;;;;6.00;3.53;;;;;;;21.53;69.57;98239.78;6126704;23;20160;-92
2022/05/30 03:45:44;;;;;;;6.47;2.80;;;;;;;21.56;69.93;98244.75;6102325;23;20155;-92
2022/05/30 03:48:11;;;;;;;7.40;3.30;;;;;;;21.54;70.01;98246.78;6127723;23;20222;-93
2022/05/30 03:50:39;;;;;;;6.77;4.20;;;;;;;21.58;70.08;98251.59;6127620;23;20154;-92
2022/05/30 03:53:06;;;;;;;7.83;3.63;;;;;;;21.55;70.70;98256.44;6127985;23;20152;-92
2022/05/30 03:55:37;;;;;;;13.13;3.23;;;;;;;21.42;71.49;98259.63;6127478;23;20148;-92
2022/05/30 03:58:04;;;;;;;5.93;2.83;;;;;;;21.38;72.17;98268.97;6127576;23;20132;-92
2022/05/30 04:00:31;;;;;;;6.43;2.67;;;;;;;21.39;72.62;98265.28;6102112;23;20573;-93
2022/05/30 04:02:57;;;;;;;5.50;3.33;;;;;;;21.45;72.33;98269.97;6127581;23;20236;-92
2022/05/30 04:05:23;;;;;;;8.07;2.60;;;;;;;21.48;71.47;98268.78;6102830;23;20515;-92
2022/05/30 04:07:48;;;;;;;6.73;2.27;;;;;;;21.50;71.32;98274.78;6127304;23;20627;-92
2022/05/30 04:10:14;;;;;;;4.53;2.50;;;;;;;21.55;71.36;98269.75;6101882;23;20709;-92
2022/05/30 04:12:39;;;;;;;11.30;2.77;;;;;;;21.59;71.19;98273.75;6128069;23;20152;-92
2022/05/30 04:15:08;;;;;;;7.53;2.97;;;;;;;21.60;71.17;98273.59;6102011;23;20159;-92
2022/05/30 04:17:36;;;;;;;7.07;2.80;;;;;;;21.54;71.41;98279.59;6127159;23;20585;-92
2022/05/30 04:20:05;;;;;;;8.00;2.80;;;;;;;21.61;71.64;98277.94;6127260;23;20148;-93
2022/05/30 04:22:31;;;;;;;5.33;2.70;;;;;;;21.65;72.09;98279.22;6127941;23;20183;-92
2022/05/30 04:24:56;;;;;;;6.00;3.20;;;;;;;21.77;72.19;98288.56;6101709;23;20163;-92
2022/05/30 04:27:22;;;;;;;7.67;3.10;;;;;;;21.73;72.12;98289.88;6126118;23;20191;-92
2022/05/30 04:29:49;;;;;;;6.17;3.33;;;;;;;21.85;71.74;98293.03;6127370;23;20183;-91
2022/05/30 04:32:16;;;;;;;9.77;3.20;;;;;;;21.91;71.67;98301.19;6127190;23;20175;-93
2022/05/30 04:34:42;;;;;;;5.83;2.73;;;;;;;21.91;72.12;98300.34;6127497;23;20147;-92
2022/05/30 04:37:07;;;;;;;8.50;2.43;;;;;;;21.96;72.22;98312.19;6125983;23;20188;-92
2022/05/30 04:39:33;;;;;;;6.50;2.70;;;;;;;21.94;73.16;98310.69;6127231;23;20572;-92
2022/05/30 04:41:58;;;;;;;6.33;3.33;;;;;;;22.07;73.16;98313.66;6127405;23;20218;-92
2022/05/30 04:44:24;;;;;;;6.87;2.57;;;;;;;22.08;72.23;98317.97;6127145;23;20147;-92
2022/05/30 04:46:54;;;;;;;7.60;2.27;;;;;;;22.13;72.07;98318.31;6126909;23;20148;-93
2022/05/30 04:49:20;;;;;;;6.27;2.50;;;;;;;22.23;72.02;98321.59;6101841;23;20155;-92
2022/05/30 04:51:46;;;;;;;7.87;2.83;;;;;;;22.25;71.45;98321.44;6102286;23;20163;-92
2022/05/30 04:54:11;;;;;;;6.67;2.93;;;;;;;22.29;70.66;98318.22;6101574;23;20215;-93
2022/05/30 04:56:37;;;;;;;11.63;3.33;;;;;;;22.38;69.96;98325.19;6127258;23;20175;-93
2022/05/30 04:59:04;;;;;;;12.03;3.33;;;;;;;22.38;70.10;98324.38;6125887;23;20152;-93
2022/05/30 05:01:30;;;;;;;4.77;2.43;;;;;;;22.42;70.59;98323.84;6126014;23;20191;-93
2022/05/30 05:03:55;;;;;;;5.70;2.77;;;;;;;22.59;70.11;98317.38;6127224;23;20162;-92
2022/05/30 05:06:21;;;;;;;5.63;3.10;;;;;;;22.67;70.08;98315.72;6101594;23;20155;-93
2022/05/30 05:08:58;;;;;;;4.43;2.43;;;;;;;22.82;69.78;98319.28;6126915;23;20167;-93
2022/05/30 05:11:29;;;;;;;5.03;2.43;;;;;;;22.96;69.25;98319.34;6127667;23;20143;-93
2022/05/30 05:13:55;;;;;;;5.60;2.30;;;;;;;22.91;67.95;98323.56;6126852;23;20236;-92
2022/05/30 05:16:24;;;;;;;9.13;3.03;;;;;;;23.05;67.00;98325.47;6126767;23;20250;-92
2022/05/30 05:18:49;;;;;;;6.37;2.77;;;;;;;23.20;65.69;98323.66;6101682;23;20160;-92
2022/05/30 05:21:19;;;;;;;5.60;2.20;;;;;;;23.33;63.67;98329.25;6101414;23;20163;-93
2022/05/30 05:23:45;;;;;;;3.57;2.07;;;;;;;23.47;63.18;98331.16;6101962;23;20651;-94
2022/05/30 05:26:11;;;;;;;3.47;1.93;;;;;;;23.40;62.38;98334.75;6101728;23;20211;-93
2022/05/30 05:28:37;;;;;;;3.23;2.07;;;;;;;23.56;62.22;98338.09;6127204;23;20227;-93
2022/05/30 05:31:02;;;;;;;7.50;2.00;;;;;;;23.78;62.44;98349.75;6125781;23;20164;-92
2022/05/30 05:33:28;;;;;;;5.63;1.50;;;;;;;23.68;60.55;98344.69;6127645;23;20175;-93
2022/05/30 05:35:54;;;;;;;6.03;1.97;;;;;;;23.62;60.57;98352.59;6127242;23;20255;-93
2022/05/30 05:38:19;;;;;;;6.63;1.57;;;;;;;23.77;60.38;98348.06;6101795;23;20166;-93
2022/05/30 05:40:45;;;;;;;7.83;1.97;;;;;;;23.79;59.31;98349.56;6126720;23;20151;-94
2022/05/30 05:43:11;;;;;;;3.57;1.60;;;;;;;23.90;57.96;98358.16;6101338;23;20171;-93
2022/05/30 05:45:40;;;;;;;4.27;1.77;;;;;;;23.84;57.77;98352.53;6101297;23;20156;-93
2022/05/30 05:48:07;;;;;;;4.50;1.60;;;;;;;23.88;58.25;98354.81;6126732;23;20151;-92
2022/05/30 05:50:33;;;;;;;4.87;2.00;;;;;;;23.73;58.21;98358.34;6101929;23;20156;-94
2022/05/30 05:52:58;;;;;;;7.47;1.83;;;;;;;23.87;57.44;98358.53;6101249;23;20255;-93
2022/05/30 05:55:24;;;;;;;3.80;1.70;;;;;;;23.92;57.97;98361.50;6126552;23;20183;-93
2022/05/30 05:57:50;;;;;;;2.67;1.50;;;;;;;23.89;57.83;98364.53;6126589;23;20155;-93
2022/05/30 06:00:17;;;;;;;6.97;1.77;;;;;;;23.85;57.08;98374.75;6101458;23;20163;-94
2022/05/30 06:02:42;;;;;;;4.17;1.93;;;;;;;23.94;57.19;98370.16;6101905;23;20198;-93
2022/05/30 06:05:09;;;;;;;5.30;1.83;;;;;;;23.87;58.42;98375.44;6126815;23;20531;-92
2022/05/30 06:07:37;;;;;;;8.20;1.97;;;;;;;24.17;56.63;98371.78;6101761;23;20168;-94
2022/05/30 06:10:05;;;;;;;8.27;2.20;;;;;;;24.14;56.62;98379.34;6102274;23;20159;-93
2022/05/30 06:12:33;;;;;;;6.57;2.00;;;;;;;24.16;56.63;98378.13;6103074;23;20651;-94
2022/05/30 06:14:59;;;;;;;4.53;2.33;;;;;;;24.34;56.28;98383.13;6128613;23;20151;-93
2022/05/30 06:17:24;;;;;;;3.77;1.77;;;;;;;24.51;56.15;98381.91;6104009;23;20521;-93
2022/05/30 06:19:50;;;;;;;9.37;1.70;;;;;;;24.63;56.33;98375.06;6104430;23;20226;-94
2022/05/30 06:22:15;;;;;;;4.37;2.00;;;;;;;25.02;56.61;98372.03;6131011;23;20152;-93
2022/05/30 06:24:41;;;;;;;4.43;1.63;;;;;;;25.22;54.93;98366.84;6129206;23;20159;-92
2022/05/30 06:27:07;;;;;;;5.33;1.97;;;;;;;25.33;54.62;98379.75;6104486;23;20235;-92
2022/05/30 06:29:33;;;;;;;3.70;1.77;;;;;;;25.22;53.49;98381.09;6103213;23;20194;-92
2022/05/30 06:31:59;;;;;;;3.13;1.47;;;;;;;25.30;53.22;98380.13;6129247;23;20152;-93
2022/05/30 06:34:25;;;;;;;7.23;1.93;;;;;;;25.37;53.29;98381.03;6103550;23;20278;-93
2022/05/30 06:36:50;;;;;;;4.83;1.83;;;;;;;25.42;53.53;98382.09;6128066;23;20184;-93
2022/05/30 06:39:17;;;;;;;3.33;1.70;;;;;;;25.81;53.99;98378.97;6105373;23;20202;-93
2022/05/30 06:41:44;;;;;;;6.20;1.83;;;;;;;26.07;52.55;98376.44;6104715;23;20167;-94
2022/05/30 06:44:10;;;;;;;5.73;2.03;;;;;;;26.49;51.87;98380.03;6129047;23;20162;-93
2022/05/30 06:46:37;;;;;;;5.07;2.10;;;;;;;26.79;51.73;98384.94;6105782;23;20164;-94
2022/05/30 06:49:05;;;;;;;5.80;2.27;;;;;;;27.09;50.78;98377.38;6106201;23;20152;-94
2022/05/30 06:51:33;;;;;;;4.37;1.57;;;;;;;27.39;48.41;98386.75;6104557;23;20167;-93
2022/05/30 06:53:58;;;;;;;5.43;1.67;;;;;;;27.49;48.35;98380.97;6103903;23;20603;-94
2022/05/30 06:56:33;;;;;;;4.33;1.70;;;;;;;27.44;47.39;98395.06;6104755;23;20211;-93
2022/05/30 06:59:00;;;;;;;5.27;1.83;;;;;;;27.57;48.53;98382.66;6128841;23;20206;-93
2022/05/30 07:01:31;;;;;;;4.07;1.80;;;;;;;27.73;47.77;98391.13;6105086;23;20170;-93
2022/05/30 07:03:56;;;;;;;6.80;1.87;;;;;;;27.97;47.09;98390.50;6103518;23;20556;-94
2022/05/30 07:06:27;;;;;;;5.50;2.23;;;;;;;28.13;49.20;98399.19;6104719;23;20152;-93
2022/05/30 07:08:53;;;;;;;4.20;1.87;;;;;;;28.24;48.70;98396.72;6104148;23;20500;-93
2022/05/30 07:11:20;;;;;;;5.10;1.87;;;;;;;28.37;45.87;98399.38;6105528;23;20163;-92
2022/05/30 07:13:47;;;;;;;2.75;1.33;;;;;;;28.61;46.09;98398.72;6108244;23;20247;-93
2022/05/30 07:16:12;;;;;;;3.97;1.67;;;;;;;28.85;46.15;98391.72;6107779;23;20195;-94
2022/05/30 07:18:46;;;;;;;3.05;1.45;;;;;;;29.07;44.37;98397.66;6106488;23;20258;-94
2022/05/30 07:21:13;;;;;;;3.38;1.73;;;;;;;28.87;44.01;98395.06;6128381;23;20163;-92
2022/05/30 07:23:39;;;;;;;7.85;1.70;;;;;;;28.89;45.77;98394.84;6103512;23;20627;-94
2022/05/30 07:26:19;;;;;;;4.43;1.52;;;;;;;28.98;44.13;98393.56;6102543;23;20246;-93
2022/05/30 07:28:45;;;;;;;2.97;1.38;;;;;;;29.15;43.84;98395.53;6105625;23;20208;-94
2022/05/30 07:31:14;;;;;;;3.47;1.17;;;;;;;29.19;43.31;98401.34;6105700;23;20227;-93
2022/05/30 07:33:42;;;;;;;2.20;1.20;;;;;;;29.17;42.52;98403.41;6128884;23;20167;-94
2022/05/30 07:36:10;;;;;;;3.20;1.20;;;;;;;29.31;42.54;98404.19;6127130;23;20254;-93
2022/05/30 07:38:36;;;;;;;3.97;1.20;;;;;;;29.45;43.58;98405.78;6102634;23;20166;-94
2022/05/30 07:41:03;;;;;;;5.10;1.40;;;;;;;29.61;41.94;98399.84;6102667;23;20151;-93
2022/05/30 07:43:29;;;;;;;3.63;1.23;;;;;;;29.55;40.92;98401.53;6102204;23;20496;-93
2022/05/30 07:45:54;;;;;;;6.03;1.55;;;;;;;29.66;41.21;98405.41;6127140;23;20156;-93
2022/05/30 07:48:20;;;;;;;5.00;1.63;;;;;;;29.52;40.91;98406.53;6103539;23;20170;-93
2022/05/30 07:50:45;;;;;;;2.47;1.08;;;;;;;29.50;40.13;98400.53;6102414;23;20164;-92
2022/05/30 07:53:11;;;;;;;2.70;1.20;;;;;;;29.28;39.42;98405.44;6127452;23;20148;-93
2022/05/30 07:55:39;;;;;;;4.00;1.60;;;;;;;29.38;40.01;98411.19;6127571;23;20211;-93
2022/05/30 07:58:05;;;;;;;2.40;1.23;;;;;;;29.52;39.35;98412.78;6126822;23;20155;-92
2022/05/30 08:00:34;;;;;;;4.28;1.67;;;;;;;29.62;38.72;98410.41;6127854;23;20148;-93
2022/05/30 08:03:00;;;;;;;2.58;1.50;;;;;;;29.70;39.07;98420.94;6101907;23;20159;-92
2022/05/30 08:05:26;;;;;;;4.82;1.60;;;;;;;29.76;38.33;98420.06;6128719;23;20152;-92
2022/05/30 08:07:54;;;;;;;5.15;1.33;;;;;;;29.88;38.07;98422.06;6128027;23;20243;-93
2022/05/30 08:10:20;;;;;;;2.78;1.38;;;;;;;29.80;38.05;98424.00;6102469;23;20198;-93
2022/05/30 08:12:49;;;;;;;2.92;1.40;;;;;;;30.10;38.30;98420.63;6128271;23;20475;-93
2022/05/30 08:15:16;;;;;;;2.65;1.20;;;;;;;30.30;39.32;98421.25;6127912;23;20219;-92
2022/05/30 08:17:42;;;;;;;3.95;1.48;;;;;;;30.54;40.16;98425.81;6101657;23;20600;-92
2022/05/30 08:20:13;;;;;;;5.55;1.42;;;;;;;30.72;37.88;98427.69;6102399;23;20239;-91
2022/05/30 08:22:39;;;;;;;3.92;1.30;;;;;;;30.56;36.59;98417.47;6102487;23;20235;-92
2022/05/30 08:25:09;;;;;;;7.40;1.98;;;;;;;30.52;36.94;98424.41;6101929;23;20556;-93
2022/05/30 08:27:34;;;;;;;3.05;1.67;;;;;;;30.49;37.66;98431.09;6128233;23;20148;-93
2022/05/30 08:30:00;;;;;;;2.67;1.13;;;;;;;30.61;36.28;98423.06;6101958;23;20223;-92
2022/05/30 08:32:37;;;;;;;2.20;1.52;;;;;;;30.61;35.41;98423.88;6102331;23;20155;-92
2022/05/30 08:35:05;;;;;;;3.55;1.63;;;;;;;30.46;36.30;98430.69;6103527;23;20155;-94
2022/05/30 08:37:32;;;;;;;2.47;1.23;;;;;;;30.54;38.01;98433.13;6101632;23;20267;-94
2022/05/30 08:42:51;;;;;;;4.40;1.30;;;;;;;30.95;36.99;98425.97;6128111;23;20199;-92
2022/05/30 08:45:20;;;;;;;2.95;1.60;;;;;;;30.81;35.31;98432.59;6126239;23;20163;-93
2022/05/30 08:47:56;;;;;;;3.15;1.30;;;;;;;30.84;37.39;98429.44;6126494;23;20156;-93
2022/05/30 08:50:46;;;;;;;2.78;1.08;;;;;;;31.05;36.30;98436.28;6101920;23;20148;-92
2022/05/30 08:53:40;;;;;;;4.38;1.40;;;;;;;31.02;36.30;98437.56;6103015;23;20155;-92
2022/05/30 08:56:22;;;;;;;3.63;2.00;;;;;;;31.07;37.03;98436.88;6102242;23;20214;-92
2022/05/30 08:59:14;;;;;;;5.88;2.15;;;;;;;30.97;35.06;98442.84;6102516;23;20148;-93
2022/05/30 09:01:45;;;;;;;4.03;1.67;;;;;;;30.97;36.86;98442.00;6101641;23;20595;-93
2022/05/30 09:04:29;;;;;;;9.55;1.70;;;;;;;30.76;36.55;98459.50;6101368;23;20538;-92
2022/05/30 09:07:03;;;;;;;4.80;2.00;;;;;;;30.79;36.91;98459.03;6127721;23;20143;-92
2022/05/30 09:09:40;;;;;;;3.80;1.63;;;;;;;30.78;36.20;98452.00;6101385;23;20171;-94
2022/05/30 09:12:29;;;;;;;5.05;1.95;;;;;;;30.86;35.92;98448.16;6101425;23;20514;-92
2022/05/30 09:15:11;;;;;;;5.22;1.90;;;;;;;30.93;36.43;98457.03;6126338;23;20144;-92
2022/05/30 09:17:50;;;;;;;4.85;2.03;;;;;;;30.94;38.06;98456.84;6103184;23;20184;-93
2022/05/30 09:20:20;;;;;;;3.13;1.35;;;;;;;31.01;36.69;98456.72;6101265;23;20143;-92
2022/05/30 09:22:46;;;;;;;5.25;1.77;;;;;;;31.16;36.12;98454.44;6127898;23;20264;-92
2022/05/30 09:28:01;;;;;;;3.15;1.55;;;;;;;31.30;35.14;98461.34;6127602;23;20142;-94
2022/05/30 09:30:58;;;;;;;6.70;1.85;;;;;;;31.45;37.16;98467.22;6101898;23;20242;-92
2022/05/30 09:33:35;;;;;;;4.72;1.80;;;;;;;31.44;35.82;98462.00;6126320;23;20148;-93
2022/05/30 09:36:22;;;;;;;2.85;1.27;;;;;;;31.49;34.78;98459.47;6101851;23;20179;-94
2022/05/30 09:38:59;;;;;;;8.45;1.88;;;;;;;31.89;34.92;98460.47;6087144;23;20311;-92
2022/05/30 09:41:38;;;;;;;3.03;1.20;;;;;;;31.92;33.75;98467.34;6101559;23;20630;-93
2022/05/30 09:44:32;;;;;;;4.38;1.45;;;;;;;31.83;34.87;98471.44;6101241;23;20579;-92
2022/05/30 09:47:06;;;;;;;3.33;1.30;;;;;;;31.80;33.19;98466.50;6126245;23;20191;-91
2022/05/30 09:49:39;;;;;;;3.95;1.30;;;;;;;31.75;33.58;98464.47;6103571;23;20524;-93
2022/05/30 09:52:50;;;;;;;6.88;1.80;;;;;;;31.77;33.08;98464.25;6103038;23;20239;-91
2022/05/30 09:55:32;;;;;;;4.10;1.30;;;;;;;31.92;34.05;98464.66;6123169;23;20231;-92
2022/05/30 09:57:58;;;;;;;4.55;1.60;;;;;;;32.05;34.27;98465.25;6129111;23;20140;-93
2022/05/30 10:00:27;;;;;;;3.75;1.10;;;;;;;32.17;32.45;98473.41;6102972;23;20160;-92
2022/05/30 10:03:07;;;;;;;3.25;1.33;;;;;;;32.23;32.58;98467.88;6128444;23;20160;-91
2022/05/30 10:05:34;;;;;;;3.05;1.35;;;;;;;32.25;33.49;98464.09;6103388;23;20194;-92
2022/05/30 10:08:24;;;;;;;5.32;1.33;;;;;;;32.33;34.29;98474.59;6102826;23;20495;-92
2022/05/30 10:10:52;;;;;;;2.70;1.13;;;;;;;32.16;32.72;98464.44;6127517;23;20570;-94
2022/05/30 10:13:39;;;;;;;2.72;1.17;;;;;;;32.23;33.65;98467.88;6103386;23;20156;-92
2022/05/30 10:16:12;;;;;;;3.15;1.10;;;;;;;32.47;34.23;98455.13;6128686;23;20187;-93
2022/05/30 10:19:00;;;;;;;3.47;1.30;;;;;;;32.55;32.78;98462.13;6102984;23;20620;-92
2022/05/30 10:28:20;;;;;;;3.15;1.08;;;;;;;33.10;31.21;98470.69;6128381;23;20627;-92
2022/05/30 10:30:54;;;;;;;5.93;1.30;;;;;;;32.79;33.52;98477.31;6102783;23;20148;-92
2022/05/30 10:33:44;;;;;;;1.73;0.88;;;;;;;32.75;32.67;98470.72;6128594;23;20570;-93
2022/05/30 10:36:25;;;;;;;2.88;1.30;;;;;;;32.79;32.27;98466.44;6102821;23;20203;-92
2022/05/30 10:39:11;;;;;;;4.43;1.40;;;;;;;32.78;31.44;98470.25;6128505;23;20139;-93
2022/05/30 10:42:03;;;;;;;3.33;1.30;;;;;;;32.48;31.25;98462.22;6102629;23;20235;-93
2022/05/30 10:44:44;;;;;;;3.40;1.30;;;;;;;32.62;32.92;98462.84;6128548;23;20175;-92
2022/05/30 10:47:35;;;;;;;3.15;1.13;;;;;;;32.82;31.76;98471.41;6127974;23;20139;-93
2022/05/30 10:50:15;;;;;;;6.28;1.38;;;;;;;32.99;31.34;98472.34;6127271;23;20144;-93
2022/05/30 10:52:49;;;;;;;3.97;1.58;;;;;;;32.86;31.00;98466.34;6102733;23;20199;-93
2022/05/30 10:55:22;;;;;;;2.80;1.40;;;;;;;32.80;29.81;98471.66;6128392;23;20142;-92
2022/05/30 10:57:54;;;;;;;4.32;1.08;;;;;;;33.05;31.40;98463.22;6104374;23;20175;-93
2022/05/30 11:00:25;;;;;;;2.95;0.80;;;;;;;32.97;30.09;98465.50;6102487;23;20139;-93
2022/05/30 11:03:11;;;;;;;2.65;1.35;;;;;;;33.15;31.45;98465.34;6102678;23;20163;-93
2022/05/30 11:05:39;;;;;;;2.42;1.30;;;;;;;33.03;31.08;98464.50;6102416;23;20155;-93
2022/05/30 11:08:29;;;;;;;7.60;1.05;;;;;;;32.99;31.15;98466.91;6102409;23;20230;-92
2022/05/30 11:11:11;;;;;;;2.20;1.13;;;;;;;32.78;30.82;98467.53;6128200;23;20160;-92
2022/05/30 11:13:50;;;;;;;4.85;1.20;;;;;;;32.98;29.57;98469.84;6128573;23;20143;-93
2022/05/30 11:16:56;;;;;;;2.88;1.15;;;;;;;33.19;30.30;98461.06;6128834;23;20171;-94
2022/05/30 11:19:35;;;;;;;3.67;1.00;;;;;;;33.16;30.10;98458.84;6128132;23;20136;-95
2022/05/30 11:22:18;;;;;;;4.28;0.95;;;;;;;33.15;29.77;98452.56;6128527;23;20144;-92
2022/05/30 11:24:51;;;;;;;1.50;0.70;;;;;;;33.25;30.44;98460.94;6102457;23;20158;-92
2022/05/30 11:27:35;;;;;;;3.17;1.00;;;;;;;33.44;30.16;98450.69;6102296;23;20179;-94
2022/05/30 11:30:29;;;;;;;3.53;1.23;;;;;;;33.64;30.39;98459.25;6102480;23;20155;-94
2022/05/30 11:33:13;;;;;;;3.33;1.38;;;;;;;33.60;29.31;98463.50;6102292;23;20144;-92
2022/05/30 11:36:04;;;;;;;1.52;0.77;;;;;;;33.90;29.94;98457.78;6126707;23;20184;-94
2022/05/30 11:38:44;;;;;;;2.65;1.20;;;;;;;34.07;29.60;98453.19;6126563;23;20619;-93
2022/05/30 11:41:55;;;;;;;2.17;0.77;;;;;;;34.18;27.65;98448.75;6102348;23;20148;-93
2022/05/30 11:44:36;;;;;;;2.05;0.98;;;;;;;34.27;29.32;98458.97;6078760;23;20243;-94
2022/05/30 11:47:26;;;;;;;1.75;0.73;;;;;;;34.29;27.26;98461.44;6101916;23;20570;-93
2022/05/30 11:49:58;;;;;;;5.50;0.88;;;;;;;34.56;28.02;98451.53;6103247;23;20219;-93
2022/05/30 11:52:30;;;;;;;3.83;0.80;;;;;;;34.71;27.89;98453.63;6102108;23;20553;-92
2022/05/30 11:55:27;;;;;;;1.88;0.82;;;;;;;34.84;28.36;98464.16;6101876;23;20600;-94
2022/05/30 11:58:10;;;;;;;7.97;0.90;;;;;;;34.89;28.15;98456.06;5091460;27;20580;-93
2022/05/30 12:00:47;;;;;;;6.18;0.95;;;;;;;34.69;27.42;98451.19;5090246;28;20241;-93
2022/05/30 12:03:51;;;;;;;1.90;0.75;;;;;;;34.79;28.96;98455.94;5090326;28;20179;-95
2022/05/30 12:06:22;;;;;;;4.03;0.85;;;;;;;34.92;29.06;98450.94;5090198;28;20206;-95
2022/05/30 12:09:00;;;;;;;3.53;0.90;;;;;;;35.04;28.44;98448.06;5090282;28;20283;-94